Aérodrome :
LOGIN :

S'inscrire | Disclaimer

   EN    FR    IT 

 










Légende :    VFR   VFR Marginal   IFR   IFR Intensif   IFR Très Intensif
Visi : 
Plafond : 
>= 8 km
>= 3000ft
5 à 8 km
1000 à 3000 ft
1500m à 5 km
500 à 1000 ft
800 à 1500m
200 à 500 ft
< 800m
< 200 ft
Symboles :   Orages  Brouillard  Fortes neiges  Fortes précipitations  Vent > 20 kt
SIGMETs :   Divers  Orages  Givrage  Turbulence  Onde Orograph.  Cendres Volcan.






- Altitude de l'aérodrome : 616 ft
- Code IATA : PUF


LFBP - Pau

DERNIER METAR :
  • 241600Z AUTO 25014KT 9999 FEW025/// SCT034/// OVC070/// ///TCU 09/06 Q1010 TEMPO 27018G30KT 3000 SHRA BKN012 FEW018CB BKN020TCU

METARs EXPIRÉS :
  • 241530Z AUTO 26018G29KT 9999 -RA BKN026/// BKN032/// BKN040/// ///TCU 09/06 Q1010 TEMPO 3000 SHRA BKN012 FEW018CB BKN020TCU
  • 241500Z AUTO 26022G33KT 220V290 9999 -RA BKN025/// OVC032/// ///CB 09/07 Q1010 TEMPO 3000 SHRA BKN012 FEW018CB BKN020TCU
  • 241430Z AUTO 25018KT 9999 BKN025/// OVC032/// ///CB 10/07 Q1009 TEMPO 27018G30KT 3000 SHRA BKN012 FEW018CB BKN020TCU
  • 241400Z AUTO 25018KT 9999 -DZ BKN024/// OVC030/// ///CB 10/07 Q1009 TEMPO 27018G30KT 3000 SHRA BKN012 BKN020TCU
  • 241330Z AUTO 25014KT 9999 BKN020/// OVC027/// ///TCU 10/08 Q1009 TEMPO 27018G30KT 3000 SHRA BKN012 BKN020TCU

TAF AMD TAF LFBP
Valide du 24 à 14h jusqu'au 25 à 12h UTC


241416Z 2414/2512 27012KT 9999 BKN030
TEMPO 2414/2424 27018G30KT 3000 SHRA BKN012 FEW018CB BKN020TCU
BECMG 2500/2502 4000 -RA OVC014
TEMPO 2500/2512 2000 RA OVC006



MET'MAP, la Météo Aéronautique d'un coup d'oeil ! - Copyright ORBIFLY Décembre 2007 - Disclaimer

ORBIFLY MET'MAP TEAM :

Programmation & Développement : Alexandra Zaïnal
Sur une idée originale de : Baudouin d'Aumeries
Assistance à la programmation : Marc-Olivier Méhu
Soutien technique & logistique : Manuel Goepfert

Contact : metmap@orbifly.com




SOURCES & CREDITS :

   NOAA